Flight Track Log - Related Links

Times and Time Zones

All times are in EDT time to prevent confusion due to time zone crossing. See the DAL5996 flight status page for this flight to view local times or setup timezone preferences in your user account.

Time Position Orientation Groundspeed Altitude Reporting Facility
EDT Latitude Longitude Course Direction KTS MPH feet Rate Location/Type
Thu 07:37:32 AM 32.9167 -97.0167 357° North 137 158 2,500  Level Dallas / Fort Worth TRACON
Thu 07:38:39 AM 32.9833 -97.0000 12° North 233 268 4,200 2,278 Climbing Dallas / Fort Worth TRACON
Thu 07:40:00 AM 32.9759 -96.8000 North  Level FlightAware Approximate
Thu 07:40:39 AM 33.1436 -96.9394 18° North 317 365 9,600  Level Fort Worth Center
Thu 07:41:00 AM 33.0991 -96.8020 357° North  Level FlightAware Approximate
Thu 07:41:39 AM 33.2289 -96.9069 18° North 338 389 11,700  Level Fort Worth Center
Thu 07:42:00 AM 33.2222 -96.8097 357° North  Level FlightAware Approximate
Thu 07:42:39 AM 33.3436 -96.8639 17° North 371 427 14,700  Level Fort Worth Center
Thu 07:43:39 AM 33.4497 -96.8208 19° North 387 445 17,200 2,550 Climbing Fort Worth Center
Thu 07:44:39 AM 33.5519 -96.7603 26° Northeast 398 458 19,800 2,200 Climbing Fort Worth Center
Thu 07:45:39 AM 33.6475 -96.6997 28° Northeast 412 474 21,600 1,950 Climbing Fort Worth Center
Thu 07:46:39 AM 33.7681 -96.6214 28° Northeast 426 490 23,700 1,750 Climbing Fort Worth Center
Thu 07:47:39 AM 33.8636 -96.5581 29° Northeast 432 497 25,100 1,450 Climbing Fort Worth Center
Thu 07:48:39 AM 33.9822 -96.4842 27° Northeast 446 513 26,600 1,500 Climbing Fort Worth Center
Thu 07:49:39 AM 34.1003 -96.4003 30° Northeast 456 525 28,100 1,500 Climbing Fort Worth Center
Thu 07:50:39 AM 34.2144 -96.3058 34° Northeast 461 531 29,600 1,100 Climbing Fort Worth Center
Thu 07:51:39 AM 34.3283 -96.2139 34° Northeast 476 548 30,300 -350 Climbing Fort Worth Center
Thu 07:52:39 AM 34.4400 -96.1192 35° Northeast 489 563 28,900 -1,300 Descending Fort Worth Center
Thu 07:53:39 AM 34.5517 -96.0292 34° Northeast 489 563 27,700 -950 Descending Fort Worth Center
Thu 07:54:39 AM 34.6592 -95.9392 35° Northeast 478 550 27,000 -350 Descending Fort Worth Center
Thu 07:55:39 AM 34.7667 -95.8514 34° Northeast 473 544 27,000  Level Fort Worth Center
Thu 07:56:39 AM 34.8611 -95.7433 43° Northeast 467 537 27,000  Level Fort Worth Center
Thu 07:57:39 AM 34.9136 -95.6108 64° Northeast 457 526 27,000  Level Fort Worth Center
Thu 07:59:17 AM 34.9981 -95.3761 66° East 472 543 27,000  Level Memphis Center
Thu 08:00:17 AM 35.0519 -95.2272 66° East 472 543 27,000  Level Memphis Center
Thu 08:01:17 AM 35.1036 -95.0806 67° East 477 549 27,000  Level Memphis Center
Thu 08:02:17 AM 35.1569 -94.9336 66° East 472 543 27,000 800 Level Memphis Center
Thu 08:03:17 AM 35.2106 -94.7842 66° East 472 543 28,600 1,650 Climbing Memphis Center
Thu 08:04:17 AM 35.2747 -94.6172 65° Northeast 477 549 30,300 1,150 Climbing Memphis Center
Thu 08:05:17 AM 35.3400 -94.4703 61° Northeast 482 555 30,900 700 Climbing Memphis Center
Thu 08:06:17 AM 35.4033 -94.3206 63° Northeast 482 555 31,700 900 Climbing Memphis Center
Thu 08:07:17 AM 35.4686 -94.1656 63° Northeast 487 560 32,700 1,050 Climbing Memphis Center
Thu 08:08:17 AM 35.5336 -94.0131 62° Northeast 493 567 33,800 1,100 Climbing Memphis Center
Thu 08:09:17 AM 35.5986 -93.8600 62° Northeast 500 575 34,900 950 Climbing Memphis Center
Thu 08:10:17 AM 35.6519 -93.7372 62° Northeast 508 585 35,700 750 Climbing Memphis Center
Thu 08:11:17 AM 35.7211 -93.5686 63° Northeast 508 585 36,400 600 Climbing Memphis Center
Thu 08:12:17 AM 35.7856 -93.4125 63° Northeast 508 585 36,900 300 Climbing Memphis Center
Thu 08:13:17 AM 35.8497 -93.2611 62° Northeast 503 579 37,000 50 Climbing Memphis Center
Thu 08:14:17 AM 35.9114 -93.1069 64° Northeast 503 579 37,000  Level Memphis Center
Thu 08:15:17 AM 35.9733 -92.9528 64° Northeast 497 572 37,000  Level Memphis Center
Thu 08:16:17 AM 36.0347 -92.8006 63° Northeast 497 572 37,000  Level Memphis Center
Thu 08:17:17 AM 36.0981 -92.6508 62° Northeast 497 572 37,000  Level Memphis Center
Thu 08:18:17 AM 36.1592 -92.4958 64° Northeast 497 572 37,000  Level Memphis Center
Thu 08:19:17 AM 36.2200 -92.3431 64° Northeast 497 572 37,000  Level Memphis Center
Thu 08:20:17 AM 36.2806 -92.1925 63° Northeast 491 565 37,000  Level Memphis Center
Thu 08:21:17 AM 36.3411 -92.0469 63° Northeast 486 559 37,000  Level Memphis Center
Thu 08:22:17 AM 36.4014 -91.8961 64° Northeast 486 559 37,000  Level Memphis Center
Thu 08:23:17 AM 36.4597 -91.7297 66° East 486 559 37,000  Level Memphis Center
Thu 08:24:17 AM 36.5239 -91.5783 62° Northeast 481 554 37,000  Level Memphis Center
Thu 08:25:17 AM 36.5814 -91.4294 64° Northeast 481 554 37,000  Level Memphis Center
Thu 08:26:17 AM 36.6389 -91.2775 65° Northeast 481 554 37,000  Level Memphis Center
Thu 08:27:17 AM 36.6961 -91.1306 64° Northeast 481 554 37,000  Level Memphis Center
Thu 08:28:17 AM 36.7489 -90.9914 65° Northeast 458 527 37,000  Level Memphis Center
Thu 08:29:17 AM 36.8058 -90.8467 64° Northeast 458 527 37,000  Level Memphis Center
Thu 08:30:17 AM 36.8606 -90.7044 64° Northeast 458 527 37,000  Level Memphis Center
Thu 08:31:17 AM 36.9172 -90.5644 63° Northeast 458 527 37,000  Level Memphis Center
Thu 08:32:17 AM 36.9714 -90.4192 65° Northeast 453 521 37,000  Level Memphis Center
Thu 08:33:17 AM 37.0236 -90.2736 66° East 453 521 37,000  Level Memphis Center
Thu 08:34:17 AM 37.0775 -90.1306 65° Northeast 453 521 37,000  Level Memphis Center
Thu 08:35:17 AM 37.1356 -89.9822 64° Northeast 458 527 37,000  Level Memphis Center
Thu 08:36:17 AM 37.1892 -89.8336 66° East 463 533 37,000  Level Memphis Center
Thu 08:37:17 AM 37.2447 -89.6897 64° Northeast 463 533 37,000  Level Memphis Center
Thu 08:38:17 AM 37.2981 -89.5408 66° East 463 533 37,000  Level Memphis Center
Thu 08:40:09 AM 37.3831 -89.2986 66° East 460 529 37,000  Level Indianapolis Center
Thu 08:40:34 AM 37.4147 -89.2094 66° East 461 531 37,000  Level Kansas City Center
Thu 08:41:38 AM 37.4678 -89.0625 66° East 460 529 37,000  Level Kansas City Center
Thu 08:42:37 AM 37.5219 -88.9161 65° Northeast 459 528 37,000  Level Kansas City Center
Thu 08:43:37 AM 37.5744 -88.7678 66° East 461 531 37,000  Level Kansas City Center
Thu 08:44:38 AM 37.6278 -88.6236 65° Northeast 459 528 37,000  Level Kansas City Center
Thu 08:45:42 AM 37.6800 -88.4747 66° East 461 531 37,000  Level Kansas City Center
Thu 08:46:40 AM 37.7300 -88.3261 67° East 460 529 37,000  Level Kansas City Center
Thu 08:47:18 AM 37.7625 -88.2364 65° Northeast 461 531 37,000  Level Indianapolis Center
Thu 08:48:20 AM 37.8247 -88.0586 66° East 460 529 37,000  Level Indianapolis Center
Thu 08:49:21 AM 37.8772 -87.9094 66° East 463 533 37,000  Level Indianapolis Center
Thu 08:49:45 AM 37.8861 -87.8792 70° East 462 532 37,000  Level Kansas City Center
Thu 08:50:22 AM 37.9383 -87.7653 60° Northeast 469 540 37,000  Level Indianapolis Center
Thu 08:51:24 AM 38.0439 -87.6764 34° Northeast 455 524 37,000  Level Indianapolis Center
Thu 08:52:25 AM 38.1550 -87.5978 29° Northeast 452 520 37,000  Level Indianapolis Center
Thu 08:53:26 AM 38.2672 -87.5169 29° Northeast 456 525 37,000  Level Indianapolis Center
Thu 08:54:27 AM 38.3800 -87.4364 29° Northeast 457 526 37,000  Level Indianapolis Center
Thu 08:55:29 AM 38.4922 -87.3542 30° Northeast 457 526 37,000  Level Indianapolis Center
Thu 08:56:30 AM 38.6036 -87.2711 30° Northeast 456 525 37,000  Level Indianapolis Center
Thu 08:57:31 AM 38.7153 -87.1906 29° Northeast 456 525 37,000  Level Indianapolis Center
Thu 08:58:33 AM 38.8256 -87.1075 30° Northeast 455 524 37,000  Level Indianapolis Center
Thu 08:59:34 AM 38.9364 -87.0267 30° Northeast 453 521 37,000  Level Indianapolis Center
Thu 09:00:36 AM 39.0464 -86.9453 30° Northeast 454 522 37,000 -537 Level Indianapolis Center
Thu 09:01:37 AM 39.1561 -86.8633 30° Northeast 451 519 35,900 -984 Descending Indianapolis Center
Thu 09:02:38 AM 39.2653 -86.7814 30° Northeast 451 519 35,000 -439 Descending Indianapolis Center
Thu 09:03:40 AM 39.3736 -86.7006 30° Northeast 448 516 35,000  Level Indianapolis Center
Thu 09:04:41 AM 39.5042 -86.6019 30° Northeast 450 518 35,000 -293 Level Indianapolis Center
Thu 09:05:43 AM 39.6136 -86.5197 30° Northeast 452 520 34,400 -780 Descending Indianapolis Center
Thu 09:06:44 AM 39.7219 -86.4361 31° Northeast 452 520 33,400 -683 Descending Indianapolis Center
Thu 09:07:46 AM 39.8339 -86.3494 31° Northeast 462 532 33,000 -488 Descending Indianapolis Center
Thu 09:08:47 AM 39.9367 -86.2450 38° Northeast 465 535 32,400 -878 Descending Indianapolis Center
Thu 09:09:49 AM 40.0369 -86.1450 37° Northeast 456 525 31,200 -1,171 Descending Indianapolis Center
Thu 09:10:50 AM 40.1356 -86.0458 38° Northeast 448 516 30,000 -585 Descending Indianapolis Center
Thu 09:11:52 AM 40.2464 -85.9350 37° Northeast 454 522 30,000  Level Indianapolis Center
Thu 09:12:53 AM 40.3489 -85.8317 38° Northeast 458 527 30,000  Level Indianapolis Center
Thu 09:13:51 AM 40.4494 -85.7319 37° Northeast 459 528 30,000  Level Chicago Center
Thu 09:14:52 AM 40.5492 -85.6314 37° Northeast 456 525 30,000 -780 Level Chicago Center
Thu 09:15:54 AM 40.6497 -85.5286 38° Northeast 456 525 28,400 -1,951 Descending Chicago Center
Thu 09:16:55 AM 40.7494 -85.4258 38° Northeast 458 527 26,000 -2,164 Descending Chicago Center
Thu 09:17:56 AM 40.8494 -85.3222 38° Northeast 458 527 24,000 -984 Descending Chicago Center
Thu 09:18:57 AM 40.9525 -85.2164 38° Northeast 467 537 24,000 -393 Level Chicago Center
Thu 09:19:58 AM 41.0542 -85.1089 39° Northeast 471 542 23,200 -1,180 Descending Chicago Center
Thu 09:20:59 AM 41.1542 -85.0011 39° Northeast 468 539 21,600 -1,082 Descending Chicago Center
Thu 09:22:00 AM 41.2508 -84.8972 39° Northeast 458 527 21,000 -295 Descending Chicago Center
Thu 09:23:01 AM 41.3658 -84.7728 39° Northeast 450 518 21,000  Level Chicago Center
Thu 09:24:02 AM 41.4622 -84.6675 39° Northeast 452 520 21,000  Level Chicago Center
Thu 09:24:26 AM 41.5053 -84.6206 39° Northeast 449 517 21,000 -786 Level Cleveland Center
Thu 09:25:26 AM 41.6028 -84.5156 39° Northeast 449 517 19,900 -1,800 Descending Cleveland Center
Thu 09:26:26 AM 41.6878 -84.4011 45° Northeast 444 511 17,400 -2,050 Descending Cleveland Center
Thu 09:27:26 AM 41.7311 -84.2897 62° Northeast 432 497 15,800 -1,950 Descending Cleveland Center
Thu 09:28:26 AM 41.7858 -84.1394 64° Northeast 414 476 13,500 -1,897 Descending Cleveland Center
Thu 09:29:23 AM 41.8481 -84.0203 55° Northeast 382 440 12,100 -712 Descending Cleveland Center
Thu 09:30:24 AM 41.9258 -83.9239 43° Northeast 385 443 12,100 -49 Level Cleveland Center
Thu 09:31:26 AM 41.9994 -83.8300 43° Northeast 374 430 12,000 -49 Descending Cleveland Center
Thu 09:32:26 AM 42.0794 -83.7306 43° Northeast 379 436 12,000 52 Level Cleveland Center
Thu 09:33:21 AM 42.1464 -83.6222 50° Northeast 360 414 12,100 76 Climbing FAA TRACON SMA TRACON (SMA)
Thu 09:33:45 AM 42.1658 -83.5897 51° Northeast 360 414 12,100  Level FAA TRACON SMA TRACON (SMA)
Thu 09:34:04 AM 42.1900 -83.5497 51° Northeast 359 413 12,100 -333 Level FAA TRACON SMA TRACON (SMA)
Thu 09:34:21 AM 42.2131 -83.5228 41° Northeast 362 417 11,900 -1,459 Descending FAA TRACON SMA TRACON (SMA)
Thu 09:34:41 AM 42.2397 -83.5047 27° Northeast 343 395 11,200 -2,308 Descending FAA TRACON SMA TRACON (SMA)
Thu 09:35:00 AM 42.2672 -83.4867 26° Northeast 353 406 10,400 -2,550 Descending FAA TRACON SMA TRACON (SMA)
Thu 09:35:21 AM 42.3006 -83.4653 25° Northeast 347 399 9,500 -2,700 Descending FAA TRACON SMA TRACON (SMA)
Thu 09:35:40 AM 42.3264 -83.4478 27° Northeast 340 391 8,600 -2,512 Descending FAA TRACON SMA TRACON (SMA)
Thu 09:36:04 AM 42.3511 -83.4300 28° Northeast 334 384 7,700 -2,591 Descending FAA TRACON SMA TRACON (SMA)
Thu 09:36:24 AM 42.3828 -83.4089 26° Northeast 332 382 6,700 -2,833 Descending FAA TRACON SMA TRACON (SMA)
Thu 09:36:40 AM 42.4025 -83.3842 43° Northeast 321 369 6,000 -2,108 Descending FAA TRACON SMA TRACON (SMA)
Thu 09:37:01 AM 42.4083 -83.3442 79° East 277 319 5,400 -1,610 Descending FAA TRACON SMA TRACON (SMA)
Thu 09:37:21 AM 42.4039 -83.3161 102° East 247 284 4,900 -1,385 Descending FAA TRACON SMA TRACON (SMA)
Thu 09:37:40 AM 42.3983 -83.2853 104° East 241 277 4,500 -1,500 Descending FAA TRACON SMA TRACON (SMA)
Thu 09:38:01 AM 42.3836 -83.2669 137° Southeast 198 228 3,900 -1,650 Descending FAA TRACON SMA TRACON (SMA)
Thu 09:38:20 AM 42.3664 -83.2658 177° South 172 198 3,400 -1,200 Descending FAA TRACON SMA TRACON (SMA)
Thu 09:38:41 AM 42.3544 -83.2722 202° Southwest 163 188 3,100 -439 Descending FAA TRACON SMA TRACON (SMA)
Thu 09:39:01 AM 42.3394 -83.2825 207° Southwest 152 175 3,100 -400 Level FAA TRACON SMA TRACON (SMA)
Thu 09:39:41 AM 42.3169 -83.2994 209° Southwest 138 159 2,700 -610 Descending FAA TRACON SMA TRACON (SMA)
Thu 09:40:00 AM 42.3069 -83.3067 208° Southwest 134 154 2,500 -600 Descending FAA TRACON SMA TRACON (SMA)
Thu 09:40:21 AM 42.2969 -83.3142 209° Southwest 114 131 2,300 -585 Descending FAA TRACON SMA TRACON (SMA)
Thu 09:40:41 AM 42.2900 -83.3192 208° Southwest 95 109 2,100 -462 Descending FAA TRACON SMA TRACON (SMA)
Thu 09:41:00 AM 42.2822 -83.3253 210° Southwest 88 101 2,000 -450 Descending FAA TRACON SMA TRACON (SMA)
Thu 09:41:21 AM 42.2756 -83.3300 208° Southwest 89 102 1,800 -450 Descending FAA TRACON SMA TRACON (SMA)
Thu 09:41:40 AM 42.2675 -83.3361 209° Southwest 94 108 1,700 -450 Descending FAA TRACON SMA TRACON (SMA)
Thu 09:42:01 AM 42.2589 -83.3422 208° Southwest 97 112 1,500 -585 Descending FAA TRACON SMA TRACON (SMA)
Thu 09:42:21 AM 42.2517 -83.3478 210° Southwest 100 115 1,300 -600 Descending FAA TRACON SMA TRACON (SMA)

Login

Don't have an account? Register now (free) for customized features, flight alerts, and more!